sensor_id;sensor_type;location;lat;lon;timestamp;pressure;altitude;pressure_sealevel;temperature;humidity
47330;BME280;33060;50.178;7.570;2023-03-17T00:00:22;96565.25;;;5.99;66.73
47330;BME280;33060;50.178;7.570;2023-03-17T00:02:55;96562.00;;;5.95;66.77
47330;BME280;33060;50.178;7.570;2023-03-17T00:05:31;96571.00;;;5.89;67.34
47330;BME280;33060;50.178;7.570;2023-03-17T00:08:10;96569.94;;;5.93;67.00
47330;BME280;33060;50.178;7.570;2023-03-17T00:10:37;96573.72;;;5.88;67.38
47330;BME280;33060;50.178;7.570;2023-03-17T00:13:05;96576.53;;;5.85;67.33
47330;BME280;33060;50.178;7.570;2023-03-17T00:15:31;96568.56;;;5.86;67.50
47330;BME280;33060;50.178;7.570;2023-03-17T00:17:58;96574.47;;;5.90;66.93
47330;BME280;33060;50.178;7.570;2023-03-17T00:20:27;96568.38;;;5.89;66.99
47330;BME280;33060;50.178;7.570;2023-03-17T00:22:56;96570.03;;;5.92;67.17
47330;BME280;33060;50.178;7.570;2023-03-17T00:25:27;96561.88;;;5.97;66.97
47330;BME280;33060;50.178;7.570;2023-03-17T00:27:55;96562.28;;;6.05;66.24
47330;BME280;33060;50.178;7.570;2023-03-17T00:30:26;96562.94;;;6.08;66.02
47330;BME280;33060;50.178;7.570;2023-03-17T00:32:55;96560.25;;;6.10;66.34
47330;BME280;33060;50.178;7.570;2023-03-17T00:35:27;96559.19;;;6.12;66.04
47330;BME280;33060;50.178;7.570;2023-03-17T00:37:56;96557.63;;;6.10;66.26
47330;BME280;33060;50.178;7.570;2023-03-17T00:40:28;96547.31;;;6.07;66.54
47330;BME280;33060;50.178;7.570;2023-03-17T00:42:57;96551.53;;;6.09;66.25
47330;BME280;33060;50.178;7.570;2023-03-17T00:45:25;96539.84;;;6.01;66.88
47330;BME280;33060;50.178;7.570;2023-03-17T00:47:53;96552.16;;;5.99;66.79
47330;BME280;33060;50.178;7.570;2023-03-17T00:50:23;96553.38;;;5.93;66.76
47330;BME280;33060;50.178;7.570;2023-03-17T00:52:53;96554.75;;;5.84;67.81
47330;BME280;33060;50.178;7.570;2023-03-17T00:55:21;96547.00;;;5.83;67.50
47330;BME280;33060;50.178;7.570;2023-03-17T00:57:49;96534.91;;;5.80;67.25
47330;BME280;33060;50.178;7.570;2023-03-17T01:00:22;96538.56;;;5.78;67.72
47330;BME280;33060;50.178;7.570;2023-03-17T01:02:56;96540.91;;;5.82;67.06
47330;BME280;33060;50.178;7.570;2023-03-17T01:05:24;96544.91;;;5.74;68.22
47330;BME280;33060;50.178;7.570;2023-03-17T01:07:53;96539.19;;;5.67;68.23
47330;BME280;33060;50.178;7.570;2023-03-17T01:10:26;96537.78;;;5.61;68.37
47330;BME280;33060;50.178;7.570;2023-03-17T01:12:55;96541.31;;;5.60;68.66
47330;BME280;33060;50.178;7.570;2023-03-17T01:15:28;96542.34;;;5.58;68.68
47330;BME280;33060;50.178;7.570;2023-03-17T01:17:58;96550.09;;;5.59;68.35
47330;BME280;33060;50.178;7.570;2023-03-17T01:20:27;96548.53;;;5.57;68.30
47330;BME280;33060;50.178;7.570;2023-03-17T01:22:54;96545.72;;;5.60;68.21
47330;BME280;33060;50.178;7.570;2023-03-17T01:25:22;96541.72;;;5.68;67.70
47330;BME280;33060;50.178;7.570;2023-03-17T01:27:49;96544.03;;;5.73;68.02
47330;BME280;33060;50.178;7.570;2023-03-17T01:32:46;96550.91;;;5.76;67.40
47330;BME280;33060;50.178;7.570;2023-03-17T01:35:13;96542.00;;;5.78;67.02
47330;BME280;33060;50.178;7.570;2023-03-17T01:37:40;96534.91;;;5.80;66.46
47330;BME280;33060;50.178;7.570;2023-03-17T01:40:09;96540.91;;;5.82;66.50
47330;BME280;33060;50.178;7.570;2023-03-17T01:42:38;96532.97;;;5.84;66.70
47330;BME280;33060;50.178;7.570;2023-03-17T01:46:04;96515.19;;;5.89;66.24
47330;BME280;33060;50.178;7.570;2023-03-17T01:47:53;96504.88;;;6.02;65.25
47330;BME280;33060;50.178;7.570;2023-03-17T01:50:20;96498.25;;;6.10;65.17
47330;BME280;33060;50.178;7.570;2023-03-17T01:52:47;96501.03;;;6.21;64.13
47330;BME280;33060;50.178;7.570;2023-03-17T01:55:16;96490.94;;;6.30;64.18
47330;BME280;33060;50.178;7.570;2023-03-17T01:57:48;96481.75;;;6.37;64.03
47330;BME280;33060;50.178;7.570;2023-03-17T02:00:23;96484.28;;;6.38;63.57
47330;BME280;33060;50.178;7.570;2023-03-17T02:02:55;96485.22;;;6.37;63.91
47330;BME280;33060;50.178;7.570;2023-03-17T02:05:27;96478.94;;;6.40;63.67
47330;BME280;33060;50.178;7.570;2023-03-17T02:07:55;96480.19;;;6.34;64.47
47330;BME280;33060;50.178;7.570;2023-03-17T02:10:27;96471.13;;;6.26;64.33
47330;BME280;33060;50.178;7.570;2023-03-17T02:12:58;96458.88;;;6.12;65.29
47330;BME280;33060;50.178;7.570;2023-03-17T02:15:36;96456.53;;;6.07;65.79
47330;BME280;33060;50.178;7.570;2023-03-17T02:18:03;96466.72;;;5.98;65.88
47330;BME280;33060;50.178;7.570;2023-03-17T02:22:57;96473.97;;;5.78;66.88
47330;BME280;33060;50.178;7.570;2023-03-17T02:25:27;96468.56;;;5.67;67.49
47330;BME280;33060;50.178;7.570;2023-03-17T02:27:58;96472.28;;;5.63;67.49
47330;BME280;33060;50.178;7.570;2023-03-17T02:30:27;96470.41;;;5.51;68.20
47330;BME280;33060;50.178;7.570;2023-03-17T02:32:54;96473.00;;;5.51;67.93
47330;BME280;33060;50.178;7.570;2023-03-17T02:35:21;96470.31;;;5.52;67.85
47330;BME280;33060;50.178;7.570;2023-03-17T02:37:48;96468.34;;;5.56;67.48
47330;BME280;33060;50.178;7.570;2023-03-17T02:40:15;96464.34;;;5.50;67.59
47330;BME280;33060;50.178;7.570;2023-03-17T02:42:43;96451.50;;;5.46;67.92
47330;BME280;33060;50.178;7.570;2023-03-17T02:45:11;96448.16;;;5.44;67.52
47330;BME280;33060;50.178;7.570;2023-03-17T02:47:38;96444.16;;;5.52;67.32
47330;BME280;33060;50.178;7.570;2023-03-17T02:50:06;96444.16;;;5.52;67.01
47330;BME280;33060;50.178;7.570;2023-03-17T02:52:33;96451.16;;;5.52;66.96
47330;BME280;33060;50.178;7.570;2023-03-17T02:54:59;96445.09;;;5.51;66.71
47330;BME280;33060;50.178;7.570;2023-03-17T02:57:26;96439.94;;;5.50;67.11
47330;BME280;33060;50.178;7.570;2023-03-17T02:59:53;96445.09;;;5.51;66.95
47330;BME280;33060;50.178;7.570;2023-03-17T03:02:19;96434.88;;;5.47;67.00
47330;BME280;33060;50.178;7.570;2023-03-17T03:04:46;96449.09;;;5.43;67.18
47330;BME280;33060;50.178;7.570;2023-03-17T03:07:13;96451.22;;;5.36;67.07
47330;BME280;33060;50.178;7.570;2023-03-17T03:09:39;96455.50;;;5.37;67.08
47330;BME280;33060;50.178;7.570;2023-03-17T03:12:07;96437.31;;;5.35;67.10
47330;BME280;33060;50.178;7.570;2023-03-17T03:14:35;96433.59;;;5.39;67.00
47330;BME280;33060;50.178;7.570;2023-03-17T03:17:02;96442.72;;;5.32;67.48
47330;BME280;33060;50.178;7.570;2023-03-17T03:19:29;96441.09;;;5.30;67.75
47330;BME280;33060;50.178;7.570;2023-03-17T03:21:56;96424.31;;;5.34;66.78
47330;BME280;33060;50.178;7.570;2023-03-17T03:24:23;96434.69;;;5.35;66.71
47330;BME280;33060;50.178;7.570;2023-03-17T03:26:49;96414.69;;;5.34;66.88
47330;BME280;33060;50.178;7.570;2023-03-17T03:29:17;96426.19;;;5.32;66.93
47330;BME280;33060;50.178;7.570;2023-03-17T03:31:43;96431.31;;;5.33;66.89
47330;BME280;33060;50.178;7.570;2023-03-17T03:34:10;96441.31;;;5.27;67.37
47330;BME280;33060;50.178;7.570;2023-03-17T03:36:37;96439.81;;;5.23;67.56
47330;BME280;33060;50.178;7.570;2023-03-17T03:39:04;96439.97;;;5.20;67.15
47330;BME280;33060;50.178;7.570;2023-03-17T03:41:30;96438.03;;;5.23;67.42
47330;BME280;33060;50.178;7.570;2023-03-17T03:43:57;96449.44;;;5.22;66.95
47330;BME280;33060;50.178;7.570;2023-03-17T03:46:23;96448.03;;;5.31;67.23
47330;BME280;33060;50.178;7.570;2023-03-17T03:48:53;96442.22;;;5.26;67.10
47330;BME280;33060;50.178;7.570;2023-03-17T03:51:20;96447.06;;;5.18;67.04
47330;BME280;33060;50.178;7.570;2023-03-17T03:53:46;96452.78;;;5.24;66.86
47330;BME280;33060;50.178;7.570;2023-03-17T03:56:16;96448.66;;;5.20;66.77
47330;BME280;33060;50.178;7.570;2023-03-17T03:58:42;96448.31;;;5.26;66.80
47330;BME280;33060;50.178;7.570;2023-03-17T04:01:09;96441.25;;;5.43;66.31
47330;BME280;33060;50.178;7.570;2023-03-17T04:03:36;96434.72;;;5.50;65.58
47330;BME280;33060;50.178;7.570;2023-03-17T04:06:04;96438.84;;;5.68;64.59
47330;BME280;33060;50.178;7.570;2023-03-17T04:08:31;96437.53;;;5.75;64.50
47330;BME280;33060;50.178;7.570;2023-03-17T04:10:57;96436.59;;;5.76;64.38
47330;BME280;33060;50.178;7.570;2023-03-17T04:13:24;96429.63;;;5.91;63.50
47330;BME280;33060;50.178;7.570;2023-03-17T04:15:51;96432.78;;;5.96;63.74
47330;BME280;33060;50.178;7.570;2023-03-17T04:18:18;96426.50;;;5.99;63.50
47330;BME280;33060;50.178;7.570;2023-03-17T04:20:44;96436.81;;;6.02;63.52
47330;BME280;33060;50.178;7.570;2023-03-17T04:23:11;96430.44;;;6.06;63.28
47330;BME280;33060;50.178;7.570;2023-03-17T04:25:38;96433.25;;;6.03;63.34
47330;BME280;33060;50.178;7.570;2023-03-17T04:28:04;96439.13;;;6.06;63.19
47330;BME280;33060;50.178;7.570;2023-03-17T04:30:31;96448.97;;;6.03;62.81
47330;BME280;33060;50.178;7.570;2023-03-17T04:32:58;96453.47;;;6.01;63.20
47330;BME280;33060;50.178;7.570;2023-03-17T04:35:25;96448.97;;;6.03;63.19
47330;BME280;33060;50.178;7.570;2023-03-17T04:37:52;96448.59;;;6.09;62.64
47330;BME280;33060;50.178;7.570;2023-03-17T04:40:19;96446.41;;;6.15;62.19
47330;BME280;33060;50.178;7.570;2023-03-17T04:42:46;96446.69;;;6.25;61.70
47330;BME280;33060;50.178;7.570;2023-03-17T04:45:13;96456.63;;;6.20;62.50
47330;BME280;33060;50.178;7.570;2023-03-17T04:47:41;96453.91;;;6.21;62.07
47330;BME280;33060;50.178;7.570;2023-03-17T04:50:08;96451.06;;;6.24;62.23
47330;BME280;33060;50.178;7.570;2023-03-17T04:52:36;96454.53;;;6.25;62.34
47330;BME280;33060;50.178;7.570;2023-03-17T04:55:04;96457.09;;;6.27;62.23
47330;BME280;33060;50.178;7.570;2023-03-17T04:57:34;96458.75;;;6.28;61.98
47330;BME280;33060;50.178;7.570;2023-03-17T05:00:03;96468.78;;;6.21;62.31
47330;BME280;33060;50.178;7.570;2023-03-17T05:02:32;96472.97;;;6.23;62.25
47330;BME280;33060;50.178;7.570;2023-03-17T05:05:09;96471.13;;;6.26;62.36
47330;BME280;33060;50.178;7.570;2023-03-17T05:07:35;96468.97;;;6.18;62.86
47330;BME280;33060;50.178;7.570;2023-03-17T05:10:02;96480.00;;;6.09;62.89
47330;BME280;33060;50.178;7.570;2023-03-17T05:12:29;96477.88;;;6.01;63.08
47330;BME280;33060;50.178;7.570;2023-03-17T05:14:56;96474.47;;;5.99;63.49
47330;BME280;33060;50.178;7.570;2023-03-17T05:17:23;96460.84;;;5.94;63.60
47330;BME280;33060;50.178;7.570;2023-03-17T05:19:49;96457.56;;;5.90;64.18
47330;BME280;33060;50.178;7.570;2023-03-17T05:22:16;96460.53;;;5.84;64.16
47330;BME280;33060;50.178;7.570;2023-03-17T05:24:42;96468.84;;;5.77;64.27
47330;BME280;33060;50.178;7.570;2023-03-17T05:27:09;96450.72;;;5.74;63.96
47330;BME280;33060;50.178;7.570;2023-03-17T05:29:36;96457.53;;;5.76;64.10
47330;BME280;33060;50.178;7.570;2023-03-17T05:32:03;96463.44;;;5.65;64.48
47330;BME280;33060;50.178;7.570;2023-03-17T05:34:30;96468.81;;;5.62;64.81
47330;BME280;33060;50.178;7.570;2023-03-17T05:36:57;96461.56;;;5.67;64.09
47330;BME280;33060;50.178;7.570;2023-03-17T05:39:24;96459.47;;;5.73;64.16
47330;BME280;33060;50.178;7.570;2023-03-17T05:41:50;96452.41;;;5.75;64.10
47330;BME280;33060;50.178;7.570;2023-03-17T05:44:18;96449.84;;;5.73;64.36
47330;BME280;33060;50.178;7.570;2023-03-17T05:46:45;96457.97;;;5.54;65.66
47330;BME280;33060;50.178;7.570;2023-03-17T05:49:12;96470.19;;;5.39;66.57
47330;BME280;33060;50.178;7.570;2023-03-17T05:51:38;96467.63;;;5.24;67.38
47330;BME280;33060;50.178;7.570;2023-03-17T05:54:07;96471.53;;;5.17;67.58
47330;BME280;33060;50.178;7.570;2023-03-17T05:56:34;96460.47;;;5.11;68.13
47330;BME280;33060;50.178;7.570;2023-03-17T05:59:02;96465.28;;;5.19;67.93
47330;BME280;33060;50.178;7.570;2023-03-17T06:01:29;96462.59;;;5.35;67.05
47330;BME280;33060;50.178;7.570;2023-03-17T06:03:56;96460.38;;;5.43;67.11
47330;BME280;33060;50.178;7.570;2023-03-17T06:06:23;96453.66;;;5.53;66.32
47330;BME280;33060;50.178;7.570;2023-03-17T06:08:51;96458.75;;;5.71;66.12
47330;BME280;33060;50.178;7.570;2023-03-17T06:11:18;96456.66;;;5.91;65.42
47330;BME280;33060;50.178;7.570;2023-03-17T06:13:47;96451.13;;;6.10;64.42
47330;BME280;33060;50.178;7.570;2023-03-17T06:16:13;96446.78;;;6.23;64.54
47330;BME280;33060;50.178;7.570;2023-03-17T06:18:40;96445.63;;;6.42;63.46
47330;BME280;33060;50.178;7.570;2023-03-17T06:21:07;96453.91;;;6.63;62.45
47330;BME280;33060;50.178;7.570;2023-03-17T06:23:34;96455.56;;;6.78;62.63
47330;BME280;33060;50.178;7.570;2023-03-17T06:26:02;96455.03;;;6.86;62.26
47330;BME280;33060;50.178;7.570;2023-03-17T06:28:28;96461.38;;;6.96;61.84
47330;BME280;33060;50.178;7.570;2023-03-17T06:30:56;96460.69;;;7.06;61.82
47330;BME280;33060;50.178;7.570;2023-03-17T06:33:23;96461.13;;;7.26;61.54
47330;BME280;33060;50.178;7.570;2023-03-17T06:35:50;96461.06;;;7.40;62.41
47330;BME280;33060;50.178;7.570;2023-03-17T06:38:17;96457.63;;;7.65;60.85
47330;BME280;33060;50.178;7.570;2023-03-17T06:40:43;96442.38;;;7.96;60.16
47330;BME280;33060;50.178;7.570;2023-03-17T06:43:10;96447.81;;;8.43;59.19
47330;BME280;33060;50.178;7.570;2023-03-17T06:45:36;96438.94;;;8.57;58.25
47330;BME280;33060;50.178;7.570;2023-03-17T06:48:03;96448.97;;;8.52;58.63
47330;BME280;33060;50.178;7.570;2023-03-17T06:50:30;96448.97;;;8.52;58.20
47330;BME280;33060;50.178;7.570;2023-03-17T06:52:57;96443.59;;;8.54;58.95
47330;BME280;33060;50.178;7.570;2023-03-17T06:55:23;96447.53;;;8.59;58.12
47330;BME280;33060;50.178;7.570;2023-03-17T06:57:50;96455.09;;;8.64;58.89
47330;BME280;33060;50.178;7.570;2023-03-17T07:00:18;96458.88;;;8.72;57.67
47330;BME280;33060;50.178;7.570;2023-03-17T07:02:54;96457.97;;;8.85;57.68
47330;BME280;33060;50.178;7.570;2023-03-17T07:05:20;96454.84;;;8.80;58.00
47330;BME280;33060;50.178;7.570;2023-03-17T07:07:48;96457.13;;;8.84;58.28
47330;BME280;33060;50.178;7.570;2023-03-17T07:10:15;96450.59;;;8.90;57.40
47330;BME280;33060;50.178;7.570;2023-03-17T07:12:43;96443.94;;;8.97;57.98
47330;BME280;33060;50.178;7.570;2023-03-17T07:15:10;96448.41;;;9.07;56.07
47330;BME280;33060;50.178;7.570;2023-03-17T07:17:37;96458.59;;;9.12;56.31
47330;BME280;33060;50.178;7.570;2023-03-17T07:20:05;96463.63;;;9.15;56.18
47330;BME280;33060;50.178;7.570;2023-03-17T07:22:32;96464.22;;;9.19;56.98
47330;BME280;33060;50.178;7.570;2023-03-17T07:24:59;96461.75;;;9.28;56.64
47330;BME280;33060;50.178;7.570;2023-03-17T07:27:25;96458.50;;;9.49;56.57
47330;BME280;33060;50.178;7.570;2023-03-17T07:29:52;96451.38;;;9.73;55.50
47330;BME280;33060;50.178;7.570;2023-03-17T07:32:19;96457.47;;;9.85;55.58
47330;BME280;33060;50.178;7.570;2023-03-17T07:34:45;96457.16;;;10.12;55.35
47330;BME280;33060;50.178;7.570;2023-03-17T07:37:12;96465.50;;;10.06;53.71
47330;BME280;33060;50.178;7.570;2023-03-17T07:39:39;96463.19;;;10.25;54.28
47330;BME280;33060;50.178;7.570;2023-03-17T07:42:05;96453.91;;;10.42;55.28
47330;BME280;33060;50.178;7.570;2023-03-17T07:44:32;96441.38;;;10.34;52.91
47330;BME280;33060;50.178;7.570;2023-03-17T07:46:59;96444.22;;;10.31;54.38
47330;BME280;33060;50.178;7.570;2023-03-17T07:49:25;96443.03;;;10.46;53.10
47330;BME280;33060;50.178;7.570;2023-03-17T07:52:07;96446.38;;;10.37;54.13
47330;BME280;33060;50.178;7.570;2023-03-17T07:54:34;96431.41;;;10.38;54.11
47330;BME280;33060;50.178;7.570;2023-03-17T07:57:03;96439.28;;;10.49;53.58
47330;BME280;33060;50.178;7.570;2023-03-17T07:59:30;96447.22;;;10.60;54.52
47330;BME280;33060;50.178;7.570;2023-03-17T08:02:04;96447.91;;;10.62;54.26
47330;BME280;33060;50.178;7.570;2023-03-17T08:04:31;96447.53;;;10.78;54.28
47330;BME280;33060;50.178;7.570;2023-03-17T08:06:57;96451.09;;;10.88;52.72
47330;BME280;33060;50.178;7.570;2023-03-17T08:09:24;96454.38;;;11.13;53.13
47330;BME280;33060;50.178;7.570;2023-03-17T08:11:51;96466.44;;;11.26;52.36
47330;BME280;33060;50.178;7.570;2023-03-17T08:14:18;96463.63;;;11.39;51.99
47330;BME280;33060;50.178;7.570;2023-03-17T08:16:45;96465.19;;;11.42;51.55
47330;BME280;33060;50.178;7.570;2023-03-17T08:19:11;96458.63;;;11.57;51.85
47330;BME280;33060;50.178;7.570;2023-03-17T08:21:38;96448.84;;;11.48;51.18
47330;BME280;33060;50.178;7.570;2023-03-17T08:24:05;96440.78;;;11.49;52.38
47330;BME280;33060;50.178;7.570;2023-03-17T08:26:32;96439.22;;;11.68;51.28
47330;BME280;33060;50.178;7.570;2023-03-17T08:28:59;96437.69;;;11.65;51.49
47330;BME280;33060;50.178;7.570;2023-03-17T08:31:26;96431.50;;;11.76;51.88
47330;BME280;33060;50.178;7.570;2023-03-17T08:33:54;96449.28;;;11.53;51.07
47330;BME280;33060;50.178;7.570;2023-03-17T08:36:22;96452.75;;;11.53;51.29
47330;BME280;33060;50.178;7.570;2023-03-17T08:38:49;96445.66;;;11.33;50.57
47330;BME280;33060;50.178;7.570;2023-03-17T08:41:19;96442.03;;;11.34;52.62
47330;BME280;33060;50.178;7.570;2023-03-17T08:43:47;96436.69;;;11.24;51.84
47330;BME280;33060;50.178;7.570;2023-03-17T08:46:22;96440.31;;;11.23;51.06
47330;BME280;33060;50.178;7.570;2023-03-17T08:48:51;96426.75;;;11.17;52.21
47330;BME280;33060;50.178;7.570;2023-03-17T08:51:19;96428.00;;;11.13;51.42
47330;BME280;33060;50.178;7.570;2023-03-17T08:53:50;96424.84;;;10.87;51.56
47330;BME280;33060;50.178;7.570;2023-03-17T08:56:18;96425.78;;;10.86;52.74
47330;BME280;33060;50.178;7.570;2023-03-17T08:58:45;96420.41;;;10.76;52.76
47330;BME280;33060;50.178;7.570;2023-03-17T09:01:13;96428.16;;;11.00;53.85
47330;BME280;33060;50.178;7.570;2023-03-17T09:03:41;96422.31;;;11.17;53.29
47330;BME280;33060;50.178;7.570;2023-03-17T09:06:09;96423.75;;;11.21;53.37
47330;BME280;33060;50.178;7.570;2023-03-17T09:08:39;96421.13;;;11.21;52.20
47330;BME280;33060;50.178;7.570;2023-03-17T09:11:13;96414.94;;;11.00;53.15
47330;BME280;33060;50.178;7.570;2023-03-17T09:13:40;96417.38;;;11.24;53.09
47330;BME280;33060;50.178;7.570;2023-03-17T09:16:07;96418.78;;;11.28;51.49
47330;BME280;33060;50.178;7.570;2023-03-17T09:18:34;96414.81;;;11.33;52.38
47330;BME280;33060;50.178;7.570;2023-03-17T09:21:01;96423.13;;;11.50;52.11
47330;BME280;33060;50.178;7.570;2023-03-17T09:23:29;96426.22;;;11.34;52.65
47330;BME280;33060;50.178;7.570;2023-03-17T09:25:56;96429.34;;;11.28;52.52
47330;BME280;33060;50.178;7.570;2023-03-17T09:28:23;96427.09;;;11.44;52.33
47330;BME280;33060;50.178;7.570;2023-03-17T09:30:50;96420.47;;;11.50;52.57
47330;BME280;33060;50.178;7.570;2023-03-17T09:33:18;96419.16;;;11.55;52.04
47330;BME280;33060;50.178;7.570;2023-03-17T09:35:44;96429.63;;;11.67;51.80
47330;BME280;33060;50.178;7.570;2023-03-17T09:38:11;96433.25;;;11.86;51.06
47330;BME280;33060;50.178;7.570;2023-03-17T09:40:46;96438.69;;;11.85;51.38
47330;BME280;33060;50.178;7.570;2023-03-17T09:49:22;96442.94;;;12.07;51.95
47330;BME280;33060;50.178;7.570;2023-03-17T09:51:53;96431.91;;;12.23;52.08
47330;BME280;33060;50.178;7.570;2023-03-17T09:56:57;96431.19;;;12.51;50.18
47330;BME280;33060;50.178;7.570;2023-03-17T09:59:37;96418.34;;;12.47;50.30
47330;BME280;33060;50.178;7.570;2023-03-17T10:04:46;96424.81;;;12.63;50.10
47330;BME280;33060;50.178;7.570;2023-03-17T10:07:18;96427.78;;;12.99;49.48
47330;BME280;33060;50.178;7.570;2023-03-17T10:10:00;96421.00;;;13.25;49.20
47330;BME280;33060;50.178;7.570;2023-03-17T10:12:43;96429.09;;;13.34;49.64
47330;BME280;33060;50.178;7.570;2023-03-17T10:17:45;96413.63;;;13.39;49.37
47330;BME280;33060;50.178;7.570;2023-03-17T10:20:23;96421.28;;;13.51;48.80
47330;BME280;33060;50.178;7.570;2023-03-17T10:22:56;96436.47;;;13.49;47.81
47330;BME280;33060;50.178;7.570;2023-03-17T10:25:30;96436.47;;;13.59;48.79
47330;BME280;33060;50.178;7.570;2023-03-17T10:28:05;96433.94;;;13.77;49.61
47330;BME280;33060;50.178;7.570;2023-03-17T10:30:34;96435.03;;;13.84;47.48
47330;BME280;33060;50.178;7.570;2023-03-17T10:33:03;96435.16;;;13.92;47.01
47330;BME280;33060;50.178;7.570;2023-03-17T10:35:33;96433.50;;;13.72;49.15
47330;BME280;33060;50.178;7.570;2023-03-17T10:38:17;96423.50;;;13.66;47.01
47330;BME280;33060;50.178;7.570;2023-03-17T10:40:47;96429.78;;;13.65;47.32
47330;BME280;33060;50.178;7.570;2023-03-17T10:43:21;96431.97;;;13.79;47.16
47330;BME280;33060;50.178;7.570;2023-03-17T10:46:16;96429.66;;;13.56;46.88
47330;BME280;33060;50.178;7.570;2023-03-17T10:48:48;96422.78;;;13.54;48.11
47330;BME280;33060;50.178;7.570;2023-03-17T10:51:35;96424.22;;;13.39;48.23
47330;BME280;33060;50.178;7.570;2023-03-17T10:54:22;96414.97;;;13.62;47.88
47330;BME280;33060;50.178;7.570;2023-03-17T10:57:00;96405.44;;;13.79;47.95
47330;BME280;33060;50.178;7.570;2023-03-17T10:59:30;96398.00;;;14.02;48.86
47330;BME280;33060;50.178;7.570;2023-03-17T11:02:00;96395.88;;;14.05;47.87
47330;BME280;33060;50.178;7.570;2023-03-17T11:04:39;96388.66;;;14.07;47.74
47330;BME280;33060;50.178;7.570;2023-03-17T11:07:16;96385.47;;;13.94;46.49
47330;BME280;33060;50.178;7.570;2023-03-17T11:09:51;96385.34;;;13.86;46.74
47330;BME280;33060;50.178;7.570;2023-03-17T11:12:24;96391.19;;;13.90;46.93
47330;BME280;33060;50.178;7.570;2023-03-17T11:15:00;96404.06;;;13.84;47.71
47330;BME280;33060;50.178;7.570;2023-03-17T11:17:47;96405.16;;;13.92;46.50
47330;BME280;33060;50.178;7.570;2023-03-17T11:20:37;96395.16;;;13.76;48.70
47330;BME280;33060;50.178;7.570;2023-03-17T11:23:43;96383.44;;;13.69;48.45
47330;BME280;33060;50.178;7.570;2023-03-17T11:29:11;96377.44;;;13.76;48.13
47330;BME280;33060;50.178;7.570;2023-03-17T11:42:51;96363.78;;;14.08;45.19
47330;BME280;33060;50.178;7.570;2023-03-17T11:48:31;96358.19;;;14.39;46.78
47330;BME280;33060;50.178;7.570;2023-03-17T11:51:30;96365.31;;;14.38;47.79
47330;BME280;33060;50.178;7.570;2023-03-17T11:56:56;96382.63;;;14.42;46.10
47330;BME280;33060;50.178;7.570;2023-03-17T11:59:44;96384.66;;;14.76;45.02
47330;BME280;33060;50.178;7.570;2023-03-17T12:04:57;96368.53;;;14.87;46.43
47330;BME280;33060;50.178;7.570;2023-03-17T12:07:36;96364.66;;;14.82;45.57
47330;BME280;33060;50.178;7.570;2023-03-17T12:12:57;96365.66;;;14.98;45.79
47330;BME280;33060;50.178;7.570;2023-03-17T12:15:33;96359.13;;;14.75;44.61
47330;BME280;33060;50.178;7.570;2023-03-17T12:18:09;96364.56;;;14.74;46.26
47330;BME280;33060;50.178;7.570;2023-03-17T12:26:13;96358.94;;;15.48;45.83
47330;BME280;33060;50.178;7.570;2023-03-17T12:28:54;96342.16;;;15.65;45.47
47330;BME280;33060;50.178;7.570;2023-03-17T12:31:40;96361.84;;;15.80;43.86
47330;BME280;33060;50.178;7.570;2023-03-17T12:34:17;96362.81;;;15.79;42.56
47330;BME280;33060;50.178;7.570;2023-03-17T12:36:47;96360.06;;;15.63;43.55
47330;BME280;33060;50.178;7.570;2023-03-17T12:39:18;96362.75;;;15.27;43.20
47330;BME280;33060;50.178;7.570;2023-03-17T12:53:36;96368.97;;;14.65;46.27
47330;BME280;33060;50.178;7.570;2023-03-17T12:58:51;96358.50;;;14.36;45.78
47330;BME280;33060;50.178;7.570;2023-03-17T13:01:29;96354.28;;;14.06;45.84
47330;BME280;33060;50.178;7.570;2023-03-17T13:07:08;96341.13;;;14.14;46.34
47330;BME280;33060;50.178;7.570;2023-03-17T13:09:41;96340.59;;;14.10;46.77
47330;BME280;33060;50.178;7.570;2023-03-17T13:23:45;96320.47;;;13.90;47.09
47330;BME280;33060;50.178;7.570;2023-03-17T13:26:18;96328.38;;;14.00;45.56
47330;BME280;33060;50.178;7.570;2023-03-17T13:28:49;96327.00;;;13.96;47.28
47330;BME280;33060;50.178;7.570;2023-03-17T13:34:12;96320.97;;;13.66;47.13
47330;BME280;33060;50.178;7.570;2023-03-17T13:43:25;96317.00;;;13.80;47.75
47330;BME280;33060;50.178;7.570;2023-03-17T13:46:19;96306.84;;;13.75;47.99
47330;BME280;33060;50.178;7.570;2023-03-17T13:48:49;96297.13;;;13.66;46.81
47330;BME280;33060;50.178;7.570;2023-03-17T13:51:22;96305.63;;;13.60;46.34
47330;BME280;33060;50.178;7.570;2023-03-17T13:53:56;96308.47;;;13.49;46.87
47330;BME280;33060;50.178;7.570;2023-03-17T13:56:44;96305.97;;;13.47;46.03
47330;BME280;33060;50.178;7.570;2023-03-17T13:59:34;96302.72;;;13.53;47.33
47330;BME280;33060;50.178;7.570;2023-03-17T14:02:13;96303.41;;;13.65;46.68
47330;BME280;33060;50.178;7.570;2023-03-17T14:04:53;96292.63;;;13.76;46.36
47330;BME280;33060;50.178;7.570;2023-03-17T14:07:26;96304.13;;;13.95;46.77
47330;BME280;33060;50.178;7.570;2023-03-17T14:09:58;96309.63;;;14.11;47.64
47330;BME280;33060;50.178;7.570;2023-03-17T14:15:20;96298.97;;;14.21;46.90
47330;BME280;33060;50.178;7.570;2023-03-17T14:17:55;96297.63;;;14.07;47.54
47330;BME280;33060;50.178;7.570;2023-03-17T14:20:26;96294.09;;;13.89;47.58
47330;BME280;33060;50.178;7.570;2023-03-17T14:22:58;96295.59;;;14.01;47.65
47330;BME280;33060;50.178;7.570;2023-03-17T14:25:35;96293.09;;;13.90;46.65
47330;BME280;33060;50.178;7.570;2023-03-17T14:28:05;96296.78;;;13.79;47.05
47330;BME280;33060;50.178;7.570;2023-03-17T14:30:37;96280.34;;;13.75;47.22
47330;BME280;33060;50.178;7.570;2023-03-17T14:33:14;96291.22;;;13.72;47.62
47330;BME280;33060;50.178;7.570;2023-03-17T14:35:50;96300.00;;;13.82;47.22
47330;BME280;33060;50.178;7.570;2023-03-17T14:38:22;96294.97;;;13.79;46.67
47330;BME280;33060;50.178;7.570;2023-03-17T14:41:14;96294.53;;;13.84;46.40
47330;BME280;33060;50.178;7.570;2023-03-17T14:43:43;96287.78;;;13.99;46.77
47330;BME280;33060;50.178;7.570;2023-03-17T14:46:24;96290.38;;;13.81;47.54
47330;BME280;33060;50.178;7.570;2023-03-17T14:51:34;96302.47;;;13.56;50.60
47330;BME280;33060;50.178;7.570;2023-03-17T14:54:09;96290.91;;;13.48;50.42
47330;BME280;33060;50.178;7.570;2023-03-17T14:56:42;96298.63;;;13.32;51.11